sensor_id;sensor_type;location;lat;lon;timestamp;temperature;humidity
25280;DHT22;13225;47.804;12.116;2024-03-23T00:54:32;10.70;99.90
25280;DHT22;13225;47.804;12.116;2024-03-23T00:56:58;10.70;99.90
25280;DHT22;13225;47.804;12.116;2024-03-23T00:59:23;10.60;99.90
25280;DHT22;13225;47.804;12.116;2024-03-23T01:01:52;10.60;99.90
25280;DHT22;13225;47.804;12.116;2024-03-23T01:04:18;10.30;99.90
25280;DHT22;13225;47.804;12.116;2024-03-23T01:06:44;10.30;99.90
25280;DHT22;13225;47.804;12.116;2024-03-23T01:09:09;10.20;99.90
25280;DHT22;13225;47.804;12.116;2024-03-23T01:11:36;10.30;99.90
25280;DHT22;13225;47.804;12.116;2024-03-23T01:14:02;10.20;99.90
25280;DHT22;13225;47.804;12.116;2024-03-23T01:16:28;10.20;99.90
25280;DHT22;13225;47.804;12.116;2024-03-23T01:18:53;10.10;99.90
25280;DHT22;13225;47.804;12.116;2024-03-23T01:21:19;10.20;99.90
25280;DHT22;13225;47.804;12.116;2024-03-23T01:23:45;10.10;99.90
25280;DHT22;13225;47.804;12.116;2024-03-23T01:26:10;10.10;99.90
25280;DHT22;13225;47.804;12.116;2024-03-23T01:28:36;10.10;99.90
25280;DHT22;13225;47.804;12.116;2024-03-23T01:31:02;10.00;99.90
25280;DHT22;13225;47.804;12.116;2024-03-23T01:33:27;10.00;99.90
25280;DHT22;13225;47.804;12.116;2024-03-23T01:35:53;10.00;99.90
25280;DHT22;13225;47.804;12.116;2024-03-23T01:38:18;10.10;99.90
25280;DHT22;13225;47.804;12.116;2024-03-23T01:40:44;10.10;99.90
25280;DHT22;13225;47.804;12.116;2024-03-23T01:43:10;10.10;99.90
25280;DHT22;13225;47.804;12.116;2024-03-23T01:45:36;10.00;99.90
25280;DHT22;13225;47.804;12.116;2024-03-23T01:48:02;10.00;99.90
25280;DHT22;13225;47.804;12.116;2024-03-23T01:50:28;9.90;99.90
25280;DHT22;13225;47.804;12.116;2024-03-23T01:52:56;10.00;99.90
25280;DHT22;13225;47.804;12.116;2024-03-23T01:55:23;10.00;99.90
25280;DHT22;13225;47.804;12.116;2024-03-23T01:57:48;10.00;99.90
25280;DHT22;13225;47.804;12.116;2024-03-23T02:00:14;10.00;99.90
25280;DHT22;13225;47.804;12.116;2024-03-23T02:02:46;10.00;99.90
25280;DHT22;13225;47.804;12.116;2024-03-23T02:05:13;10.00;99.90
25280;DHT22;13225;47.804;12.116;2024-03-23T02:07:42;9.90;99.90
25280;DHT22;13225;47.804;12.116;2024-03-23T02:10:09;9.90;99.90
25280;DHT22;13225;47.804;12.116;2024-03-23T02:12:36;9.90;99.90
25280;DHT22;13225;47.804;12.116;2024-03-23T02:15:02;9.90;99.90
25280;DHT22;13225;47.804;12.116;2024-03-23T02:17:29;9.90;99.90
25280;DHT22;13225;47.804;12.116;2024-03-23T02:22:21;9.80;99.90
25280;DHT22;13225;47.804;12.116;2024-03-23T02:24:47;9.80;99.90
25280;DHT22;13225;47.804;12.116;2024-03-23T02:27:12;9.80;99.90
25280;DHT22;13225;47.804;12.116;2024-03-23T02:29:38;9.80;99.90
25280;DHT22;13225;47.804;12.116;2024-03-23T02:32:04;9.80;99.90
25280;DHT22;13225;47.804;12.116;2024-03-23T02:34:29;9.80;99.90
25280;DHT22;13225;47.804;12.116;2024-03-23T02:36:55;9.70;99.90
25280;DHT22;13225;47.804;12.116;2024-03-23T02:39:21;9.70;99.90
25280;DHT22;13225;47.804;12.116;2024-03-23T02:41:46;9.90;99.90
25280;DHT22;13225;47.804;12.116;2024-03-23T02:44:13;9.70;99.90
25280;DHT22;13225;47.804;12.116;2024-03-23T02:46:39;9.60;99.90
25280;DHT22;13225;47.804;12.116;2024-03-23T02:49:05;9.50;99.90
25280;DHT22;13225;47.804;12.116;2024-03-23T02:51:31;9.50;99.90
25280;DHT22;13225;47.804;12.116;2024-03-23T02:53:56;9.50;99.90
25280;DHT22;13225;47.804;12.116;2024-03-23T02:56:22;9.40;99.90
25280;DHT22;13225;47.804;12.116;2024-03-23T02:58:48;9.30;99.90
25280;DHT22;13225;47.804;12.116;2024-03-23T03:01:14;9.30;99.90
25280;DHT22;13225;47.804;12.116;2024-03-23T03:03:39;9.30;99.90
25280;DHT22;13225;47.804;12.116;2024-03-23T03:06:05;9.40;99.90
25280;DHT22;13225;47.804;12.116;2024-03-23T03:08:31;9.40;99.90
25280;DHT22;13225;47.804;12.116;2024-03-23T03:10:56;9.30;99.90
25280;DHT22;13225;47.804;12.116;2024-03-23T03:13:22;9.30;99.90
25280;DHT22;13225;47.804;12.116;2024-03-23T03:15:47;9.20;99.90
25280;DHT22;13225;47.804;12.116;2024-03-23T03:18:13;9.10;99.90
25280;DHT22;13225;47.804;12.116;2024-03-23T03:20:41;9.10;99.90
25280;DHT22;13225;47.804;12.116;2024-03-23T03:23:07;9.10;99.90
25280;DHT22;13225;47.804;12.116;2024-03-23T03:25:33;9.10;99.90
25280;DHT22;13225;47.804;12.116;2024-03-23T03:27:59;9.20;99.90
25280;DHT22;13225;47.804;12.116;2024-03-23T03:30:25;9.20;99.90
25280;DHT22;13225;47.804;12.116;2024-03-23T03:32:53;9.30;99.90
25280;DHT22;13225;47.804;12.116;2024-03-23T03:35:19;9.40;99.90
25280;DHT22;13225;47.804;12.116;2024-03-23T03:37:45;9.40;99.90
25280;DHT22;13225;47.804;12.116;2024-03-23T03:40:11;9.40;99.90
25280;DHT22;13225;47.804;12.116;2024-03-23T03:42:37;9.50;99.90
25280;DHT22;13225;47.804;12.116;2024-03-23T03:45:03;9.50;99.90
25280;DHT22;13225;47.804;12.116;2024-03-23T03:47:29;9.50;99.90
25280;DHT22;13225;47.804;12.116;2024-03-23T03:49:55;9.50;99.90
25280;DHT22;13225;47.804;12.116;2024-03-23T03:52:21;9.50;99.90
25280;DHT22;13225;47.804;12.116;2024-03-23T03:54:46;9.40;99.90
25280;DHT22;13225;47.804;12.116;2024-03-23T03:57:12;9.40;99.90
25280;DHT22;13225;47.804;12.116;2024-03-23T03:59:37;9.40;99.90
25280;DHT22;13225;47.804;12.116;2024-03-23T04:02:03;9.40;99.90
25280;DHT22;13225;47.804;12.116;2024-03-23T04:04:28;9.40;99.90
25280;DHT22;13225;47.804;12.116;2024-03-23T04:07:01;9.30;99.90
25280;DHT22;13225;47.804;12.116;2024-03-23T04:09:27;9.20;99.90
25280;DHT22;13225;47.804;12.116;2024-03-23T04:11:53;9.20;99.90
25280;DHT22;13225;47.804;12.116;2024-03-23T04:14:19;9.20;99.90
25280;DHT22;13225;47.804;12.116;2024-03-23T04:16:45;9.20;99.90
25280;DHT22;13225;47.804;12.116;2024-03-23T04:19:10;9.20;99.90
25280;DHT22;13225;47.804;12.116;2024-03-23T04:21:37;9.10;99.90
25280;DHT22;13225;47.804;12.116;2024-03-23T04:24:03;9.10;99.90
25280;DHT22;13225;47.804;12.116;2024-03-23T04:26:29;9.10;99.90
25280;DHT22;13225;47.804;12.116;2024-03-23T04:28:54;9.10;99.90
25280;DHT22;13225;47.804;12.116;2024-03-23T04:31:20;9.10;99.90
25280;DHT22;13225;47.804;12.116;2024-03-23T04:33:46;9.10;99.90
25280;DHT22;13225;47.804;12.116;2024-03-23T04:36:11;9.00;99.90
25280;DHT22;13225;47.804;12.116;2024-03-23T04:38:37;9.00;99.90
25280;DHT22;13225;47.804;12.116;2024-03-23T04:41:02;9.00;99.90
25280;DHT22;13225;47.804;12.116;2024-03-23T04:43:28;9.00;99.90
25280;DHT22;13225;47.804;12.116;2024-03-23T04:45:54;9.00;99.90
25280;DHT22;13225;47.804;12.116;2024-03-23T04:48:23;9.00;99.90
25280;DHT22;13225;47.804;12.116;2024-03-23T04:50:49;9.00;99.90
25280;DHT22;13225;47.804;12.116;2024-03-23T04:55:43;9.00;99.90
25280;DHT22;13225;47.804;12.116;2024-03-23T04:58:09;9.10;99.90
25280;DHT22;13225;47.804;12.116;2024-03-23T05:00:34;9.10;99.90
25280;DHT22;13225;47.804;12.116;2024-03-23T05:03:00;9.00;99.90
25280;DHT22;13225;47.804;12.116;2024-03-23T05:05:25;9.00;99.90
25280;DHT22;13225;47.804;12.116;2024-03-23T05:07:51;9.10;99.90
25280;DHT22;13225;47.804;12.116;2024-03-23T05:10:16;9.00;99.90
25280;DHT22;13225;47.804;12.116;2024-03-23T05:12:42;8.90;99.90
25280;DHT22;13225;47.804;12.116;2024-03-23T05:15:09;8.90;99.90
25280;DHT22;13225;47.804;12.116;2024-03-23T05:17:34;8.90;99.90
25280;DHT22;13225;47.804;12.116;2024-03-23T05:20:01;8.90;99.90
25280;DHT22;13225;47.804;12.116;2024-03-23T05:22:28;8.90;99.90
25280;DHT22;13225;47.804;12.116;2024-03-23T05:24:54;8.80;99.90
25280;DHT22;13225;47.804;12.116;2024-03-23T05:27:19;8.80;99.90
25280;DHT22;13225;47.804;12.116;2024-03-23T05:29:45;8.70;99.90
25280;DHT22;13225;47.804;12.116;2024-03-23T05:32:10;8.70;99.90
25280;DHT22;13225;47.804;12.116;2024-03-23T05:34:36;8.70;99.90
25280;DHT22;13225;47.804;12.116;2024-03-23T05:37:01;8.70;99.90
25280;DHT22;13225;47.804;12.116;2024-03-23T05:39:27;8.70;99.90
25280;DHT22;13225;47.804;12.116;2024-03-23T05:41:52;8.70;99.90
25280;DHT22;13225;47.804;12.116;2024-03-23T05:44:18;8.70;99.90
25280;DHT22;13225;47.804;12.116;2024-03-23T05:46:44;8.80;99.90
25280;DHT22;13225;47.804;12.116;2024-03-23T05:49:15;8.80;99.90
25280;DHT22;13225;47.804;12.116;2024-03-23T05:51:41;8.80;99.90
25280;DHT22;13225;47.804;12.116;2024-03-23T05:54:06;8.80;99.90
25280;DHT22;13225;47.804;12.116;2024-03-23T05:56:32;8.80;99.90
25280;DHT22;13225;47.804;12.116;2024-03-23T06:01:24;8.80;99.90
25280;DHT22;13225;47.804;12.116;2024-03-23T06:03:49;9.00;99.90
25280;DHT22;13225;47.804;12.116;2024-03-23T06:06:15;9.10;99.90
25280;DHT22;13225;47.804;12.116;2024-03-23T06:08:40;9.10;99.90
25280;DHT22;13225;47.804;12.116;2024-03-23T06:11:06;9.20;99.90
25280;DHT22;13225;47.804;12.116;2024-03-23T06:13:32;9.20;99.90
25280;DHT22;13225;47.804;12.116;2024-03-23T06:15:59;9.30;99.90
25280;DHT22;13225;47.804;12.116;2024-03-23T06:18:25;9.50;99.90
25280;DHT22;13225;47.804;12.116;2024-03-23T06:20:51;9.60;99.90
25280;DHT22;13225;47.804;12.116;2024-03-23T06:23:16;9.60;99.90
25280;DHT22;13225;47.804;12.116;2024-03-23T06:25:42;9.70;99.90
25280;DHT22;13225;47.804;12.116;2024-03-23T06:28:08;9.70;99.90
25280;DHT22;13225;47.804;12.116;2024-03-23T06:30:34;9.80;99.90
25280;DHT22;13225;47.804;12.116;2024-03-23T06:32:59;9.90;99.90
25280;DHT22;13225;47.804;12.116;2024-03-23T06:35:25;10.00;99.90
25280;DHT22;13225;47.804;12.116;2024-03-23T06:37:50;10.10;99.90
25280;DHT22;13225;47.804;12.116;2024-03-23T06:40:16;10.20;99.90
25280;DHT22;13225;47.804;12.116;2024-03-23T06:42:42;10.30;99.90
25280;DHT22;13225;47.804;12.116;2024-03-23T06:45:07;10.40;99.90
25280;DHT22;13225;47.804;12.116;2024-03-23T06:47:33;10.40;99.90
25280;DHT22;13225;47.804;12.116;2024-03-23T06:50:03;10.40;99.90
25280;DHT22;13225;47.804;12.116;2024-03-23T06:52:30;10.50;99.90
25280;DHT22;13225;47.804;12.116;2024-03-23T06:54:56;10.50;99.90
25280;DHT22;13225;47.804;12.116;2024-03-23T06:57:22;10.50;99.90
25280;DHT22;13225;47.804;12.116;2024-03-23T06:59:47;10.50;99.90
25280;DHT22;13225;47.804;12.116;2024-03-23T07:02:13;10.50;99.90
25280;DHT22;13225;47.804;12.116;2024-03-23T07:04:38;10.50;99.90
25280;DHT22;13225;47.804;12.116;2024-03-23T07:07:07;10.60;99.90
25280;DHT22;13225;47.804;12.116;2024-03-23T07:09:32;10.70;99.90
25280;DHT22;13225;47.804;12.116;2024-03-23T07:11:58;10.70;99.90
25280;DHT22;13225;47.804;12.116;2024-03-23T07:14:24;10.80;99.90
25280;DHT22;13225;47.804;12.116;2024-03-23T07:16:50;10.90;99.90
25280;DHT22;13225;47.804;12.116;2024-03-23T07:19:16;11.00;99.90
25280;DHT22;13225;47.804;12.116;2024-03-23T07:21:43;11.10;99.90
25280;DHT22;13225;47.804;12.116;2024-03-23T07:24:09;11.20;99.90
25280;DHT22;13225;47.804;12.116;2024-03-23T07:26:35;11.30;99.90
25280;DHT22;13225;47.804;12.116;2024-03-23T07:29:00;11.40;99.90
25280;DHT22;13225;47.804;12.116;2024-03-23T07:31:26;11.40;99.90
25280;DHT22;13225;47.804;12.116;2024-03-23T07:33:52;11.70;99.90
25280;DHT22;13225;47.804;12.116;2024-03-23T07:36:17;11.80;99.90
25280;DHT22;13225;47.804;12.116;2024-03-23T07:38:43;11.80;99.90
25280;DHT22;13225;47.804;12.116;2024-03-23T07:41:20;11.90;99.90
25280;DHT22;13225;47.804;12.116;2024-03-23T07:43:47;12.00;99.90
25280;DHT22;13225;47.804;12.116;2024-03-23T07:46:14;12.10;99.90
25280;DHT22;13225;47.804;12.116;2024-03-23T07:48:40;12.10;99.90
25280;DHT22;13225;47.804;12.116;2024-03-23T07:51:15;12.10;99.90
25280;DHT22;13225;47.804;12.116;2024-03-23T07:53:43;12.10;99.90
25280;DHT22;13225;47.804;12.116;2024-03-23T07:56:10;12.20;99.90
25280;DHT22;13225;47.804;12.116;2024-03-23T07:58:36;12.30;99.90
25280;DHT22;13225;47.804;12.116;2024-03-23T08:01:06;12.30;99.90
25280;DHT22;13225;47.804;12.116;2024-03-23T08:03:39;12.40;99.90
25280;DHT22;13225;47.804;12.116;2024-03-23T08:08:38;12.70;99.90
25280;DHT22;13225;47.804;12.116;2024-03-23T08:11:04;12.90;99.90
25280;DHT22;13225;47.804;12.116;2024-03-23T08:13:30;13.00;99.90
25280;DHT22;13225;47.804;12.116;2024-03-23T08:16:00;13.20;99.90
25280;DHT22;13225;47.804;12.116;2024-03-23T08:18:26;13.40;99.90
25280;DHT22;13225;47.804;12.116;2024-03-23T08:21:05;13.70;99.90
25280;DHT22;13225;47.804;12.116;2024-03-23T08:23:33;13.80;99.90
25280;DHT22;13225;47.804;12.116;2024-03-23T08:26:06;13.60;99.90
25280;DHT22;13225;47.804;12.116;2024-03-23T08:28:32;13.70;99.90
25280;DHT22;13225;47.804;12.116;2024-03-23T08:31:01;13.60;99.90
25280;DHT22;13225;47.804;12.116;2024-03-23T08:33:28;13.60;99.90
25280;DHT22;13225;47.804;12.116;2024-03-23T08:36:07;13.70;99.90
25280;DHT22;13225;47.804;12.116;2024-03-23T08:38:33;13.80;99.90
25280;DHT22;13225;47.804;12.116;2024-03-23T08:41:09;13.70;99.90
25280;DHT22;13225;47.804;12.116;2024-03-23T08:43:39;13.40;99.90
25280;DHT22;13225;47.804;12.116;2024-03-23T08:48:40;13.60;99.90
25280;DHT22;13225;47.804;12.116;2024-03-23T08:51:07;13.60;99.90
25280;DHT22;13225;47.804;12.116;2024-03-23T08:53:37;14.20;99.90
25280;DHT22;13225;47.804;12.116;2024-03-23T08:56:04;15.30;99.90
25280;DHT22;13225;47.804;12.116;2024-03-23T08:58:30;15.20;99.90
25280;DHT22;13225;47.804;12.116;2024-03-23T09:01:02;15.10;99.90
25280;DHT22;13225;47.804;12.116;2024-03-23T09:03:29;14.90;99.90
25280;DHT22;13225;47.804;12.116;2024-03-23T09:05:54;14.50;99.90
25280;DHT22;13225;47.804;12.116;2024-03-23T09:08:21;14.40;99.90
25280;DHT22;13225;47.804;12.116;2024-03-23T09:10:47;13.70;99.90
25280;DHT22;13225;47.804;12.116;2024-03-23T09:13:13;13.50;99.90
25280;DHT22;13225;47.804;12.116;2024-03-23T09:15:47;13.50;99.90
25280;DHT22;13225;47.804;12.116;2024-03-23T09:18:13;13.50;99.90
25280;DHT22;13225;47.804;12.116;2024-03-23T09:20:38;13.60;99.90
25280;DHT22;13225;47.804;12.116;2024-03-23T09:23:04;13.60;99.90
25280;DHT22;13225;47.804;12.116;2024-03-23T09:25:29;13.60;99.90
25280;DHT22;13225;47.804;12.116;2024-03-23T09:27:55;13.50;99.90
25280;DHT22;13225;47.804;12.116;2024-03-23T09:30:21;13.40;99.90
25280;DHT22;13225;47.804;12.116;2024-03-23T09:32:46;13.30;99.90
25280;DHT22;13225;47.804;12.116;2024-03-23T09:35:12;13.20;99.90
25280;DHT22;13225;47.804;12.116;2024-03-23T09:37:41;13.10;99.90
25280;DHT22;13225;47.804;12.116;2024-03-23T09:40:10;13.00;99.90
25280;DHT22;13225;47.804;12.116;2024-03-23T09:42:37;12.80;99.90
25280;DHT22;13225;47.804;12.116;2024-03-23T09:45:05;12.70;99.90
25280;DHT22;13225;47.804;12.116;2024-03-23T09:47:31;12.60;99.90
25280;DHT22;13225;47.804;12.116;2024-03-23T09:49:57;12.40;99.90
25280;DHT22;13225;47.804;12.116;2024-03-23T09:52:23;12.40;99.90
25280;DHT22;13225;47.804;12.116;2024-03-23T09:54:49;12.20;99.90
25280;DHT22;13225;47.804;12.116;2024-03-23T09:57:14;12.10;99.90
25280;DHT22;13225;47.804;12.116;2024-03-23T09:59:40;11.90;99.90
25280;DHT22;13225;47.804;12.116;2024-03-23T10:02:06;11.80;99.90
25280;DHT22;13225;47.804;12.116;2024-03-23T10:04:38;11.70;99.90
25280;DHT22;13225;47.804;12.116;2024-03-23T10:07:29;11.70;99.90
25280;DHT22;13225;47.804;12.116;2024-03-23T10:09:55;11.60;99.90
25280;DHT22;13225;47.804;12.116;2024-03-23T10:12:21;11.10;99.90
25280;DHT22;13225;47.804;12.116;2024-03-23T10:14:47;10.60;99.90
25280;DHT22;13225;47.804;12.116;2024-03-23T10:17:16;10.40;99.90
25280;DHT22;13225;47.804;12.116;2024-03-23T10:19:45;10.20;99.90
25280;DHT22;13225;47.804;12.116;2024-03-23T10:22:14;10.20;99.90
25280;DHT22;13225;47.804;12.116;2024-03-23T10:24:41;10.10;99.90
25280;DHT22;13225;47.804;12.116;2024-03-23T10:27:07;9.90;99.90
25280;DHT22;13225;47.804;12.116;2024-03-23T10:29:32;9.90;99.90
25280;DHT22;13225;47.804;12.116;2024-03-23T10:32:11;9.80;99.90
25280;DHT22;13225;47.804;12.116;2024-03-23T10:34:37;9.70;99.90
25280;DHT22;13225;47.804;12.116;2024-03-23T10:37:04;9.40;99.90
25280;DHT22;13225;47.804;12.116;2024-03-23T10:39:37;8.60;99.90
25280;DHT22;13225;47.804;12.116;2024-03-23T10:42:04;8.50;99.90
25280;DHT22;13225;47.804;12.116;2024-03-23T10:44:31;8.30;99.90
25280;DHT22;13225;47.804;12.116;2024-03-23T10:47:01;8.10;99.90
25280;DHT22;13225;47.804;12.116;2024-03-23T10:49:31;8.00;99.90
25280;DHT22;13225;47.804;12.116;2024-03-23T10:52:02;8.00;99.90
25280;DHT22;13225;47.804;12.116;2024-03-23T10:54:27;7.90;99.90
25280;DHT22;13225;47.804;12.116;2024-03-23T10:59:33;7.90;99.90
25280;DHT22;13225;47.804;12.116;2024-03-23T11:02:01;7.80;99.90
25280;DHT22;13225;47.804;12.116;2024-03-23T11:07:02;7.70;99.90
25280;DHT22;13225;47.804;12.116;2024-03-23T11:09:41;7.60;99.90
25280;DHT22;13225;47.804;12.116;2024-03-23T11:15:00;7.50;99.90
25280;DHT22;13225;47.804;12.116;2024-03-23T11:17:27;7.30;99.90
25280;DHT22;13225;47.804;12.116;2024-03-23T11:25:18;7.30;99.90
25280;DHT22;13225;47.804;12.116;2024-03-23T11:27:45;7.30;99.90
25280;DHT22;13225;47.804;12.116;2024-03-23T11:32:46;7.20;99.90
25280;DHT22;13225;47.804;12.116;2024-03-23T11:35:33;7.20;99.90
25280;DHT22;13225;47.804;12.116;2024-03-23T11:38:06;7.30;99.90
25280;DHT22;13225;47.804;12.116;2024-03-23T11:40:33;7.30;99.90
25280;DHT22;13225;47.804;12.116;2024-03-23T11:43:04;7.30;99.90
25280;DHT22;13225;47.804;12.116;2024-03-23T11:45:38;7.30;99.90
25280;DHT22;13225;47.804;12.116;2024-03-23T11:48:14;7.30;99.90
25280;DHT22;13225;47.804;12.116;2024-03-23T11:50:42;7.30;99.90
25280;DHT22;13225;47.804;12.116;2024-03-23T11:53:15;7.30;99.90
25280;DHT22;13225;47.804;12.116;2024-03-23T11:58:16;7.30;99.90
25280;DHT22;13225;47.804;12.116;2024-03-23T12:03:19;7.30;99.90
25280;DHT22;13225;47.804;12.116;2024-03-23T12:05:50;7.30;99.90
25280;DHT22;13225;47.804;12.116;2024-03-23T12:08:19;7.20;99.90
25280;DHT22;13225;47.804;12.116;2024-03-23T12:10:51;7.10;99.90
25280;DHT22;13225;47.804;12.116;2024-03-23T12:13:18;7.10;99.90
25280;DHT22;13225;47.804;12.116;2024-03-23T12:15:51;7.00;99.90
25280;DHT22;13225;47.804;12.116;2024-03-23T12:18:17;6.90;99.90
25280;DHT22;13225;47.804;12.116;2024-03-23T12:20:43;6.80;99.90
25280;DHT22;13225;47.804;12.116;2024-03-23T12:23:11;6.70;99.90
25280;DHT22;13225;47.804;12.116;2024-03-23T12:25:40;6.70;99.90
25280;DHT22;13225;47.804;12.116;2024-03-23T12:28:06;6.70;99.90
25280;DHT22;13225;47.804;12.116;2024-03-23T12:30:34;6.80;99.90
25280;DHT22;13225;47.804;12.116;2024-03-23T12:32:59;6.80;99.90
25280;DHT22;13225;47.804;12.116;2024-03-23T12:35:25;6.80;99.90
25280;DHT22;13225;47.804;12.116;2024-03-23T12:37:50;6.80;99.90
25280;DHT22;13225;47.804;12.116;2024-03-23T12:40:16;6.80;99.90
25280;DHT22;13225;47.804;12.116;2024-03-23T12:42:42;6.80;99.90
25280;DHT22;13225;47.804;12.116;2024-03-23T12:45:07;6.80;99.90
25280;DHT22;13225;47.804;12.116;2024-03-23T12:47:33;6.80;99.90
25280;DHT22;13225;47.804;12.116;2024-03-23T12:49:59;6.90;99.90
25280;DHT22;13225;47.804;12.116;2024-03-23T12:52:24;6.90;99.90
25280;DHT22;13225;47.804;12.116;2024-03-23T12:54:55;7.00;99.90
25280;DHT22;13225;47.804;12.116;2024-03-23T12:57:22;7.00;99.90
25280;DHT22;13225;47.804;12.116;2024-03-23T12:59:48;7.00;99.90
25280;DHT22;13225;47.804;12.116;2024-03-23T13:02:17;7.10;99.90
25280;DHT22;13225;47.804;12.116;2024-03-23T13:04:43;7.10;99.90
25280;DHT22;13225;47.804;12.116;2024-03-23T13:07:09;7.10;99.90
25280;DHT22;13225;47.804;12.116;2024-03-23T13:09:34;7.20;99.90
25280;DHT22;13225;47.804;12.116;2024-03-23T13:12:00;7.20;99.90
25280;DHT22;13225;47.804;12.116;2024-03-23T13:14:25;7.30;99.90
25280;DHT22;13225;47.804;12.116;2024-03-23T13:16:51;7.30;99.90
25280;DHT22;13225;47.804;12.116;2024-03-23T13:19:16;7.30;99.90
25280;DHT22;13225;47.804;12.116;2024-03-23T13:21:42;7.40;99.90
25280;DHT22;13225;47.804;12.116;2024-03-23T13:24:08;7.40;99.90
25280;DHT22;13225;47.804;12.116;2024-03-23T13:26:33;7.50;99.90
25280;DHT22;13225;47.804;12.116;2024-03-23T13:28:59;7.40;99.90
25280;DHT22;13225;47.804;12.116;2024-03-23T13:31:25;7.60;99.90
25280;DHT22;13225;47.804;12.116;2024-03-23T13:33:51;7.60;99.90
25280;DHT22;13225;47.804;12.116;2024-03-23T13:36:17;7.60;99.90
25280;DHT22;13225;47.804;12.116;2024-03-23T13:38:43;7.70;99.90
25280;DHT22;13225;47.804;12.116;2024-03-23T13:41:08;7.90;99.90
25280;DHT22;13225;47.804;12.116;2024-03-23T13:43:37;7.90;99.90
25280;DHT22;13225;47.804;12.116;2024-03-23T13:46:03;7.90;99.90
25280;DHT22;13225;47.804;12.116;2024-03-23T13:48:28;8.00;99.90
25280;DHT22;13225;47.804;12.116;2024-03-23T13:51:00;8.00;99.90
25280;DHT22;13225;47.804;12.116;2024-03-23T13:53:26;7.90;99.90
25280;DHT22;13225;47.804;12.116;2024-03-23T13:55:52;7.90;99.90
25280;DHT22;13225;47.804;12.116;2024-03-23T13:58:18;7.80;99.90
25280;DHT22;13225;47.804;12.116;2024-03-23T14:00:44;7.60;99.90
25280;DHT22;13225;47.804;12.116;2024-03-23T14:03:10;7.50;99.90
25280;DHT22;13225;47.804;12.116;2024-03-23T14:05:37;7.40;99.90
25280;DHT22;13225;47.804;12.116;2024-03-23T14:08:06;7.30;99.90
25280;DHT22;13225;47.804;12.116;2024-03-23T14:10:32;7.20;99.90
25280;DHT22;13225;47.804;12.116;2024-03-23T14:12:58;7.30;99.90
25280;DHT22;13225;47.804;12.116;2024-03-23T14:15:26;7.20;99.90
25280;DHT22;13225;47.804;12.116;2024-03-23T14:17:51;7.20;99.90
25280;DHT22;13225;47.804;12.116;2024-03-23T14:20:17;7.10;99.90
25280;DHT22;13225;47.804;12.116;2024-03-23T14:22:42;6.90;99.90
25280;DHT22;13225;47.804;12.116;2024-03-23T14:25:09;6.70;99.90
25280;DHT22;13225;47.804;12.116;2024-03-23T14:27:34;6.60;99.90
25280;DHT22;13225;47.804;12.116;2024-03-23T14:30:03;6.60;99.90
25280;DHT22;13225;47.804;12.116;2024-03-23T14:32:30;6.60;99.90
25280;DHT22;13225;47.804;12.116;2024-03-23T14:35:05;6.60;99.90
25280;DHT22;13225;47.804;12.116;2024-03-23T14:37:32;6.60;99.90
25280;DHT22;13225;47.804;12.116;2024-03-23T14:39:58;6.50;99.90
25280;DHT22;13225;47.804;12.116;2024-03-23T14:42:24;6.60;99.90
25280;DHT22;13225;47.804;12.116;2024-03-23T14:44:53;6.60;99.90
25280;DHT22;13225;47.804;12.116;2024-03-23T14:47:19;6.50;99.90
25280;DHT22;13225;47.804;12.116;2024-03-23T14:49:45;6.40;99.90
25280;DHT22;13225;47.804;12.116;2024-03-23T14:52:16;6.40;99.90
25280;DHT22;13225;47.804;12.116;2024-03-23T14:54:41;6.50;99.90
25280;DHT22;13225;47.804;12.116;2024-03-23T14:57:07;6.50;99.90
25280;DHT22;13225;47.804;12.116;2024-03-23T14:59:34;6.10;99.90
25280;DHT22;13225;47.804;12.116;2024-03-23T15:02:00;6.50;99.90
25280;DHT22;13225;47.804;12.116;2024-03-23T15:04:26;6.60;99.90
25280;DHT22;13225;47.804;12.116;2024-03-23T15:06:51;6.60;99.90
25280;DHT22;13225;47.804;12.116;2024-03-23T15:09:17;6.60;99.90
25280;DHT22;13225;47.804;12.116;2024-03-23T15:11:43;6.50;99.90
25280;DHT22;13225;47.804;12.116;2024-03-23T15:14:09;6.40;99.90
25280;DHT22;13225;47.804;12.116;2024-03-23T15:16:36;6.30;99.90
25280;DHT22;13225;47.804;12.116;2024-03-23T15:19:02;6.40;99.90
25280;DHT22;13225;47.804;12.116;2024-03-23T15:21:27;6.50;99.90
25280;DHT22;13225;47.804;12.116;2024-03-23T15:23:53;6.60;99.90
25280;DHT22;13225;47.804;12.116;2024-03-23T15:26:19;6.60;99.90
25280;DHT22;13225;47.804;12.116;2024-03-23T15:28:49;6.30;99.90
25280;DHT22;13225;47.804;12.116;2024-03-23T15:31:23;5.90;99.90
25280;DHT22;13225;47.804;12.116;2024-03-23T15:33:49;5.50;99.90
25280;DHT22;13225;47.804;12.116;2024-03-23T15:36:15;5.30;99.90
25280;DHT22;13225;47.804;12.116;2024-03-23T15:38:40;5.00;99.90
25280;DHT22;13225;47.804;12.116;2024-03-23T15:41:06;4.70;99.90
25280;DHT22;13225;47.804;12.116;2024-03-23T15:43:33;4.10;99.90
25280;DHT22;13225;47.804;12.116;2024-03-23T15:48:27;3.60;99.90
25280;DHT22;13225;47.804;12.116;2024-03-23T15:50:56;3.60;99.90
25280;DHT22;13225;47.804;12.116;2024-03-23T15:53:23;3.50;99.90
25280;DHT22;13225;47.804;12.116;2024-03-23T15:55:59;3.60;99.90
25280;DHT22;13225;47.804;12.116;2024-03-23T15:58:26;3.60;99.90
25280;DHT22;13225;47.804;12.116;2024-03-23T16:01:02;3.70;99.90
25280;DHT22;13225;47.804;12.116;2024-03-23T16:03:29;3.70;99.90
25280;DHT22;13225;47.804;12.116;2024-03-23T16:05:56;3.80;99.90
25280;DHT22;13225;47.804;12.116;2024-03-23T16:08:23;3.90;99.90
25280;DHT22;13225;47.804;12.116;2024-03-23T16:10:49;3.80;99.90
25280;DHT22;13225;47.804;12.116;2024-03-23T16:13:16;4.00;99.90
25280;DHT22;13225;47.804;12.116;2024-03-23T16:15:42;4.00;99.90
25280;DHT22;13225;47.804;12.116;2024-03-23T16:18:08;4.10;99.90
25280;DHT22;13225;47.804;12.116;2024-03-23T16:20:33;4.10;99.90
25280;DHT22;13225;47.804;12.116;2024-03-23T16:23:00;4.20;99.90
25280;DHT22;13225;47.804;12.116;2024-03-23T16:25:26;4.20;99.90
25280;DHT22;13225;47.804;12.116;2024-03-23T16:27:52;4.30;99.90
25280;DHT22;13225;47.804;12.116;2024-03-23T16:30:17;4.30;99.90
25280;DHT22;13225;47.804;12.116;2024-03-23T16:32:43;4.40;99.90
25280;DHT22;13225;47.804;12.116;2024-03-23T16:35:09;4.50;99.90
25280;DHT22;13225;47.804;12.116;2024-03-23T16:37:35;4.50;99.90
25280;DHT22;13225;47.804;12.116;2024-03-23T16:40:01;4.70;99.90
25280;DHT22;13225;47.804;12.116;2024-03-23T16:42:27;4.80;99.90
25280;DHT22;13225;47.804;12.116;2024-03-23T16:44:52;4.90;99.90
25280;DHT22;13225;47.804;12.116;2024-03-23T16:47:18;5.00;99.90
25280;DHT22;13225;47.804;12.116;2024-03-23T16:49:43;5.00;99.90
25280;DHT22;13225;47.804;12.116;2024-03-23T16:52:09;5.00;99.90